createdAt,value
2022-09-06T00:01:00.987Z,100791.09
2022-09-06T00:03:28.328Z,100789.75
2022-09-06T00:05:55.479Z,100782.44
2022-09-06T00:08:22.021Z,100776.41
2022-09-06T00:10:48.676Z,100780.06
2022-09-06T00:13:15.143Z,100786.94
2022-09-06T00:15:41.791Z,100779.31
2022-09-06T00:18:08.752Z,100787.06
2022-09-06T00:20:41.465Z,100788.25
2022-09-06T00:23:08.276Z,100796.56
2022-09-06T00:25:35.348Z,100799.34
2022-09-06T00:28:05.007Z,100785.41
2022-09-06T00:30:32.854Z,100784.38
2022-09-06T00:32:59.416Z,100770.72
2022-09-06T00:35:26.857Z,100770.78
2022-09-06T00:37:58.934Z,100764.75
2022-09-06T00:40:26.030Z,100774.72
2022-09-06T00:42:52.767Z,100772.84
2022-09-06T00:45:19.951Z,100768.53
2022-09-06T00:47:48.310Z,100765.56
2022-09-06T00:50:17.838Z,100768.66
2022-09-06T00:52:46.858Z,100772.22
2022-09-06T00:55:13.742Z,100774.22
2022-09-06T00:57:40.415Z,100768.78
2022-09-06T01:00:09.619Z,100776.78
2022-09-06T01:02:36.833Z,100778.19
2022-09-06T01:05:05.046Z,100770.00
2022-09-06T01:08:18.141Z,100772.56
2022-09-06T01:11:17.618Z,100773.75
2022-09-06T01:13:54.871Z,100774.38
2022-09-06T01:16:24.320Z,100771.16
2022-09-06T01:19:08.958Z,100769.47
2022-09-06T01:22:08.279Z,100769.44
2022-09-06T01:25:01.521Z,100775.50
2022-09-06T01:27:31.020Z,100773.44
2022-09-06T01:30:05.992Z,100786.25
2022-09-06T01:32:47.512Z,100780.22
2022-09-06T01:35:38.084Z,100781.78
2022-09-06T01:38:06.136Z,100773.91
2022-09-06T01:40:36.492Z,100776.59
2022-09-06T01:43:11.196Z,100769.66
2022-09-06T01:45:56.084Z,100766.53
2022-09-06T01:48:41.520Z,100765.03
2022-09-06T01:51:44.901Z,100768.53
2022-09-06T01:54:14.541Z,100758.22
2022-09-06T01:56:59.712Z,100761.63
2022-09-06T01:59:45.080Z,100764.34
2022-09-06T02:02:27.005Z,100750.97
2022-09-06T02:05:01.511Z,100754.19
2022-09-06T02:07:31.034Z,100751.44
2022-09-06T02:10:17.006Z,100751.91
2022-09-06T02:12:46.237Z,100744.28
2022-09-06T02:15:34.617Z,100745.72
2022-09-06T02:18:06.274Z,100754.88
2022-09-06T02:20:36.657Z,100742.28
2022-09-06T02:23:06.269Z,100743.38
2022-09-06T02:25:38.944Z,100749.66
2022-09-06T02:28:09.416Z,100744.16
2022-09-06T02:30:41.019Z,100740.28
2022-09-06T02:33:12.751Z,100737.28
2022-09-06T02:35:49.613Z,100724.31
2022-09-06T02:38:16.450Z,100716.22
2022-09-06T02:40:44.161Z,100714.47
2022-09-06T02:43:10.642Z,100711.28
2022-09-06T02:45:37.230Z,100711.84
2022-09-06T02:48:04.086Z,100718.72
2022-09-06T02:50:30.962Z,100720.16
2022-09-06T02:53:06.002Z,100722.28
2022-09-06T02:55:32.857Z,100728.44
2022-09-06T02:57:59.426Z,100727.38
2022-09-06T03:00:26.941Z,100732.09
2022-09-06T03:02:53.618Z,100728.91
2022-09-06T03:05:20.430Z,100725.66
2022-09-06T03:07:47.003Z,100725.75
2022-09-06T03:10:13.514Z,100719.22
2022-09-06T03:12:41.653Z,100719.78
2022-09-06T03:15:08.685Z,100734.88
2022-09-06T03:17:35.474Z,100730.28
2022-09-06T03:20:02.202Z,100723.72
2022-09-06T03:22:28.762Z,100726.22
2022-09-06T03:24:55.278Z,100730.34
2022-09-06T03:27:21.752Z,100726.84
2022-09-06T03:29:48.245Z,100723.56
2022-09-06T03:32:14.910Z,100728.53
2022-09-06T03:34:41.556Z,100724.44
2022-09-06T03:37:08.051Z,100722.50
2022-09-06T03:39:34.639Z,100723.34
2022-09-06T03:42:01.128Z,100724.16
2022-09-06T03:44:27.648Z,100725.78
2022-09-06T03:46:54.197Z,100731.78
2022-09-06T03:49:20.819Z,100734.78
2022-09-06T03:51:47.353Z,100732.56
2022-09-06T03:54:13.847Z,100731.16
2022-09-06T03:56:40.333Z,100738.81
2022-09-06T03:59:06.892Z,100730.00
2022-09-06T04:01:33.640Z,100726.44
2022-09-06T04:04:01.557Z,100732.13
2022-09-06T04:06:28.761Z,100734.59
2022-09-06T04:08:55.252Z,100731.56
2022-09-06T04:11:21.761Z,100724.72
2022-09-06T04:13:48.821Z,100726.31
2022-09-06T04:16:17.628Z,100729.06
2022-09-06T04:18:44.336Z,100728.75
2022-09-06T04:21:10.897Z,100726.03
2022-09-06T04:23:39.962Z,100723.28
2022-09-06T04:26:06.787Z,100722.47
2022-09-06T04:28:33.316Z,100721.97
2022-09-06T04:31:04.974Z,100717.34
2022-09-06T04:33:34.276Z,100714.66
2022-09-06T04:36:02.459Z,100716.91
2022-09-06T04:38:30.567Z,100699.44
2022-09-06T04:40:57.137Z,100701.66
2022-09-06T04:43:24.270Z,100707.47
2022-09-06T04:45:50.974Z,100707.56
2022-09-06T04:48:17.620Z,100701.38
2022-09-06T04:50:44.339Z,100699.28
2022-09-06T04:53:11.113Z,100691.69
2022-09-06T04:55:38.241Z,100692.31
2022-09-06T04:58:05.631Z,100689.31
2022-09-06T05:00:34.211Z,100696.22
2022-09-06T05:03:00.777Z,100695.72
2022-09-06T05:05:27.288Z,100699.06
2022-09-06T05:07:54.389Z,100706.25
2022-09-06T05:10:22.734Z,100699.16
2022-09-06T05:12:50.701Z,100701.41
2022-09-06T05:15:18.524Z,100699.78
2022-09-06T05:17:45.096Z,100703.09
2022-09-06T05:20:12.384Z,100708.59
2022-09-06T05:22:39.976Z,100711.06
2022-09-06T05:25:08.348Z,100716.28
2022-09-06T05:27:34.926Z,100713.53
2022-09-06T05:30:01.474Z,100718.72
2022-09-06T05:32:28.034Z,100715.22
2022-09-06T05:34:54.555Z,100713.56
2022-09-06T05:37:21.046Z,100718.22
2022-09-06T05:39:47.497Z,100710.13
2022-09-06T05:42:19.009Z,100710.28
2022-09-06T05:44:45.790Z,100709.75
2022-09-06T05:47:12.294Z,100706.28
2022-09-06T05:49:38.787Z,100708.09
2022-09-06T05:52:05.260Z,100721.03
2022-09-06T05:54:31.998Z,100708.63
2022-09-06T05:56:58.541Z,100712.19
2022-09-06T05:59:25.251Z,100713.56
2022-09-06T06:01:53.344Z,100722.31
2022-09-06T06:04:21.062Z,100715.72
2022-09-06T06:06:49.018Z,100720.91
2022-09-06T06:09:16.193Z,100718.72
2022-09-06T06:11:42.879Z,100714.06
2022-09-06T06:14:09.502Z,100713.53
2022-09-06T06:16:36.687Z,100709.72
2022-09-06T06:19:03.276Z,100710.81
2022-09-06T06:21:31.142Z,100709.19
2022-09-06T06:23:59.956Z,100714.91
2022-09-06T06:26:27.888Z,100721.97
2022-09-06T06:28:55.584Z,100723.63
2022-09-06T06:31:22.810Z,100708.88
2022-09-06T06:33:50.313Z,100726.91
2022-09-06T06:36:22.701Z,100737.53
2022-09-06T06:38:51.485Z,100752.00
2022-09-06T06:41:19.934Z,100748.47
2022-09-06T06:43:46.479Z,100751.22
2022-09-06T06:46:15.519Z,100753.94
2022-09-06T06:48:46.333Z,100750.06
2022-09-06T06:51:16.767Z,100745.13
2022-09-06T06:53:47.624Z,100745.13
2022-09-06T06:56:31.853Z,100751.34
2022-09-06T06:59:00.304Z,100763.66
2022-09-06T07:01:29.002Z,100759.28
2022-09-06T07:03:56.122Z,100754.34
2022-09-06T07:09:09.735Z,100752.38
2022-09-06T07:11:36.278Z,100742.25
2022-09-06T07:14:02.822Z,100754.81
2022-09-06T07:16:30.085Z,100757.56
2022-09-06T07:18:56.761Z,100763.03
2022-09-06T07:21:43.447Z,100750.72
2022-09-06T07:24:10.559Z,100744.69
2022-09-06T07:26:39.494Z,100757.84
2022-09-06T07:29:07.254Z,100756.47
2022-09-06T07:34:22.109Z,100750.91
2022-09-06T07:36:48.780Z,100764.03
2022-09-06T07:39:15.457Z,100764.81
2022-09-06T07:41:43.243Z,100751.94
2022-09-06T07:44:09.962Z,100757.94
2022-09-06T07:46:36.547Z,100755.16
2022-09-06T07:49:05.996Z,100755.06
2022-09-06T07:51:32.876Z,100745.75
2022-09-06T07:54:29.460Z,100756.94
2022-09-06T07:56:47.444Z,100751.16
2022-09-06T07:59:13.987Z,100751.34
2022-09-06T08:01:41.344Z,100764.78
2022-09-06T08:04:10.318Z,100762.56
2022-09-06T08:09:25.414Z,100757.09
2022-09-06T08:11:52.807Z,100760.91
2022-09-06T08:14:19.997Z,100755.44
2022-09-06T08:16:46.584Z,100749.97
2022-09-06T08:19:14.601Z,100753.84
2022-09-06T08:21:41.427Z,100752.78
2022-09-06T08:24:12.258Z,100741.84
2022-09-06T08:26:40.713Z,100741.84
2022-09-06T08:29:08.936Z,100741.25
2022-09-06T08:31:38.608Z,100746.13
2022-09-06T08:34:05.522Z,100747.50
2022-09-06T08:36:32.840Z,100746.88
2022-09-06T08:39:01.356Z,100751.44
2022-09-06T08:41:31.306Z,100749.47
2022-09-06T08:47:10.309Z,100744.00
2022-09-06T08:49:40.797Z,100743.44
2022-09-06T08:52:20.533Z,100741.44
2022-09-06T08:54:46.953Z,100737.81
2022-09-06T08:57:30.707Z,100733.75
2022-09-06T09:00:02.727Z,100734.75
2022-09-06T09:02:41.371Z,100741.78
2022-09-06T09:05:32.145Z,100739.94
2022-09-06T09:08:25.636Z,100727.50
2022-09-06T09:11:01.112Z,100714.94
2022-09-06T09:13:33.624Z,100712.00
2022-09-06T09:16:00.380Z,100714.50
2022-09-06T09:18:34.130Z,100714.13
2022-09-06T09:21:00.743Z,100710.59
2022-09-06T09:23:29.834Z,100707.31
2022-09-06T09:26:01.607Z,100697.03
2022-09-06T09:28:28.524Z,100695.91
2022-09-06T09:30:56.732Z,100701.91
2022-09-06T09:33:38.781Z,100693.34
2022-09-06T09:36:09.911Z,100696.09
2022-09-06T09:38:49.304Z,100697.03
2022-09-06T09:41:27.985Z,100694.56
2022-09-06T09:44:01.161Z,100694.47
2022-09-06T09:46:33.992Z,100691.47
2022-09-06T09:49:06.551Z,100683.28
2022-09-06T09:51:36.648Z,100687.72
2022-09-06T09:54:06.681Z,100676.91
2022-09-06T09:56:38.499Z,100675.66
2022-09-06T09:59:17.245Z,100669.00
2022-09-06T10:01:44.160Z,100666.56
2022-09-06T10:07:10.011Z,100663.28
2022-09-06T10:09:39.477Z,100661.41
2022-09-06T10:12:06.767Z,100672.34
2022-09-06T10:14:45.276Z,100668.72
2022-09-06T10:17:20.724Z,100671.66
2022-09-06T10:19:48.277Z,100670.41
2022-09-06T10:22:23.726Z,100676.59
2022-09-06T10:25:02.256Z,100681.16
2022-09-06T10:27:29.039Z,100680.19
2022-09-06T10:30:04.916Z,100672.75
2022-09-06T10:32:42.644Z,100672.44
2022-09-06T10:35:16.414Z,100668.56
2022-09-06T10:37:52.459Z,100661.75
2022-09-06T10:40:32.026Z,100663.19
2022-09-06T10:43:00.548Z,100656.25
2022-09-06T10:45:54.759Z,100644.84
2022-09-06T10:48:28.800Z,100641.94
2022-09-06T10:51:07.083Z,100646.78
2022-09-06T10:53:42.371Z,100637.59
2022-09-06T10:56:13.125Z,100638.22
2022-09-06T11:01:41.833Z,100649.53
2022-09-06T11:04:25.798Z,100647.56
2022-09-06T11:06:57.701Z,100645.59
2022-09-06T11:09:38.851Z,100642.78
2022-09-06T11:12:12.200Z,100636.22
2022-09-06T11:14:40.024Z,100644.16
2022-09-06T11:17:10.189Z,100631.25
2022-09-06T11:19:44.281Z,100629.50
2022-09-06T11:22:50.165Z,100624.34
2022-09-06T11:25:16.644Z,100627.69
2022-09-06T11:27:47.784Z,100623.13
2022-09-06T11:30:16.639Z,100619.75
2022-09-06T11:32:49.037Z,100604.16
2022-09-06T11:35:32.201Z,100603.75
2022-09-06T11:38:05.178Z,100598.25
2022-09-06T11:40:44.035Z,100603.94
2022-09-06T11:43:35.938Z,100600.38
2022-09-06T11:46:05.305Z,100591.59
2022-09-06T11:48:48.445Z,100602.25
2022-09-06T11:51:38.436Z,100601.88
2022-09-06T11:54:22.017Z,100602.94
2022-09-06T11:57:02.718Z,100588.84
2022-09-06T11:59:56.178Z,100597.16
2022-09-06T12:02:41.225Z,100587.44
2022-09-06T12:05:12.050Z,100586.28
2022-09-06T12:08:10.673Z,100589.94
2022-09-06T12:10:40.318Z,100589.22
2022-09-06T12:13:44.511Z,100584.47
2022-09-06T12:16:12.138Z,100575.31
2022-09-06T12:18:47.815Z,100578.06
2022-09-06T12:21:38.674Z,100572.94
2022-09-06T12:24:09.794Z,100571.31
2022-09-06T12:26:55.369Z,100572.88
2022-09-06T12:29:26.859Z,100571.88
2022-09-06T12:32:01.986Z,100568.16
2022-09-06T12:34:34.608Z,100555.63
2022-09-06T12:37:05.269Z,100558.94
2022-09-06T12:39:32.021Z,100560.66
2022-09-06T12:42:02.554Z,100549.03
2022-09-06T12:44:32.846Z,100550.34
2022-09-06T12:47:06.073Z,100549.00
2022-09-06T12:49:32.693Z,100543.97
2022-09-06T12:52:07.601Z,100546.31
2022-09-06T12:54:42.964Z,100543.00
2022-09-06T12:57:17.177Z,100543.13
2022-09-06T12:59:54.131Z,100540.59
2022-09-06T13:02:27.600Z,100531.97
2022-09-06T13:05:02.672Z,100529.41
2022-09-06T13:07:31.733Z,100519.94
2022-09-06T13:09:58.845Z,100520.09
2022-09-06T13:12:33.458Z,100517.97
2022-09-06T13:15:17.161Z,100525.00
2022-09-06T13:17:43.675Z,100516.53
2022-09-06T13:20:22.889Z,100511.53
2022-09-06T13:22:51.489Z,100515.94
2022-09-06T13:25:24.849Z,100503.34
2022-09-06T13:27:58.221Z,100504.66
2022-09-06T13:30:32.224Z,100500.41
2022-09-06T13:32:59.808Z,100516.69
2022-09-06T13:35:29.450Z,100503.25
2022-09-06T13:38:31.876Z,100494.38
2022-09-06T13:41:12.627Z,100488.97
2022-09-06T13:43:47.786Z,100491.88
2022-09-06T13:46:14.435Z,100492.25
2022-09-06T13:48:41.617Z,100483.16
2022-09-06T13:51:09.845Z,100480.84
2022-09-06T13:53:36.485Z,100470.56
2022-09-06T13:56:03.141Z,100476.66
2022-09-06T13:58:29.941Z,100467.47
2022-09-06T14:00:56.961Z,100470.25
2022-09-06T14:03:32.549Z,100474.03
2022-09-06T14:06:02.650Z,100468.31
2022-09-06T14:08:43.641Z,100473.50
2022-09-06T14:11:17.028Z,100469.97
2022-09-06T14:13:44.248Z,100471.56
2022-09-06T14:16:11.846Z,100471.94
2022-09-06T14:18:38.590Z,100463.66
2022-09-06T14:21:05.502Z,100465.34
2022-09-06T14:23:32.080Z,100464.59
2022-09-06T14:26:00.662Z,100468.22
2022-09-06T14:28:27.669Z,100464.22
2022-09-06T14:30:55.047Z,100459.84
2022-09-06T14:33:21.742Z,100455.84
2022-09-06T14:35:49.240Z,100451.09
2022-09-06T14:38:15.910Z,100443.97
2022-09-06T14:40:45.298Z,100444.38
2022-09-06T14:43:11.948Z,100444.84
2022-09-06T14:45:38.611Z,100442.47
2022-09-06T14:48:05.690Z,100444.09
2022-09-06T14:50:32.291Z,100436.16
2022-09-06T14:52:58.866Z,100438.19
2022-09-06T14:55:25.442Z,100440.22
2022-09-06T14:57:59.611Z,100448.59
2022-09-06T15:00:26.317Z,100435.47
2022-09-06T15:02:56.043Z,100434.63
2022-09-06T15:05:22.796Z,100434.28
2022-09-06T15:07:49.706Z,100435.47
2022-09-06T15:10:16.592Z,100437.03
2022-09-06T15:12:43.159Z,100433.78
2022-09-06T15:15:10.193Z,100427.78
2022-09-06T15:17:37.248Z,100425.72
2022-09-06T15:20:04.292Z,100422.53
2022-09-06T15:22:31.221Z,100424.09
2022-09-06T15:24:58.030Z,100418.06
2022-09-06T15:27:24.633Z,100408.03
2022-09-06T15:29:51.193Z,100421.13
2022-09-06T15:32:17.801Z,100419.06
2022-09-06T15:34:44.296Z,100414.22
2022-09-06T15:37:10.940Z,100420.53
2022-09-06T15:39:37.522Z,100424.50
2022-09-06T15:42:04.293Z,100412.94
2022-09-06T15:44:30.949Z,100419.69
2022-09-06T15:46:59.275Z,100408.09
2022-09-06T15:49:32.000Z,100414.97
2022-09-06T15:52:01.088Z,100408.09
2022-09-06T15:54:46.955Z,100411.25
2022-09-06T15:57:16.261Z,100400.47
2022-09-06T15:59:42.973Z,100408.69
2022-09-06T16:02:10.066Z,100403.47
2022-09-06T16:04:36.743Z,100399.81
2022-09-06T16:07:03.797Z,100394.53
2022-09-06T16:09:30.926Z,100393.69
2022-09-06T16:11:57.741Z,100391.19
2022-09-06T16:14:24.300Z,100383.81
2022-09-06T16:16:53.833Z,100386.94
2022-09-06T16:19:20.574Z,100375.66
2022-09-06T16:21:47.154Z,100373.16
2022-09-06T16:24:14.469Z,100365.88
2022-09-06T16:26:44.453Z,100366.63
2022-09-06T16:29:13.270Z,100357.69
2022-09-06T16:31:40.867Z,100360.31
2022-09-06T16:34:11.917Z,100360.31
2022-09-06T16:36:38.958Z,100356.41
2022-09-06T16:39:06.418Z,100361.03
2022-09-06T16:41:42.599Z,100360.31
2022-09-06T16:44:10.145Z,100359.44
2022-09-06T16:46:37.030Z,100362.34
2022-09-06T16:49:04.617Z,100367.69
2022-09-06T16:51:31.905Z,100365.91
2022-09-06T16:53:59.957Z,100356.22
2022-09-06T16:56:29.369Z,100363.63
2022-09-06T16:58:58.692Z,100356.72
2022-09-06T17:01:27.467Z,100354.94
2022-09-06T17:03:54.576Z,100352.38
2022-09-06T17:06:22.134Z,100362.50
2022-09-06T17:08:49.058Z,100357.47
2022-09-06T17:11:19.019Z,100367.63
2022-09-06T17:13:48.130Z,100356.25
2022-09-06T17:16:33.749Z,100358.31
2022-09-06T17:19:01.385Z,100370.75
2022-09-06T17:21:29.396Z,100366.84
2022-09-06T17:23:58.219Z,100371.69
2022-09-06T17:26:24.850Z,100370.22
2022-09-06T17:28:51.721Z,100369.50
2022-09-06T17:31:25.490Z,100371.50
2022-09-06T17:33:53.374Z,100373.50
2022-09-06T17:36:25.881Z,100376.19
2022-09-06T17:38:53.964Z,100378.31
2022-09-06T17:44:48.803Z,100367.03
2022-09-06T17:47:16.088Z,100371.69
2022-09-06T17:49:42.835Z,100374.47
2022-09-06T17:52:09.774Z,100375.63
2022-09-06T17:54:36.507Z,100381.59
2022-09-06T17:57:03.075Z,100384.38
2022-09-06T17:59:35.060Z,100390.34
2022-09-06T18:02:02.302Z,100390.78
2022-09-06T18:04:28.881Z,100388.50
2022-09-06T18:06:55.475Z,100392.97
2022-09-06T18:09:22.439Z,100389.81
2022-09-06T18:11:49.219Z,100392.66
2022-09-06T18:14:20.697Z,100386.53
2022-09-06T18:16:49.301Z,100383.25
2022-09-06T18:19:17.658Z,100395.56
2022-09-06T18:21:44.849Z,100394.31
2022-09-06T18:24:13.862Z,100401.06
2022-09-06T18:26:41.678Z,100398.69
2022-09-06T18:29:12.060Z,100407.38
2022-09-06T18:31:39.606Z,100409.41
2022-09-06T18:34:07.348Z,100409.81
2022-09-06T18:36:33.867Z,100404.78
2022-09-06T18:39:05.094Z,100398.84
2022-09-06T18:41:53.808Z,100395.59
2022-09-06T18:44:20.673Z,100409.97
2022-09-06T18:46:48.010Z,100399.31
2022-09-06T18:49:15.618Z,100398.56
2022-09-06T18:51:43.486Z,100406.06
2022-09-06T18:54:11.065Z,100412.41
2022-09-06T18:56:37.966Z,100401.03
2022-09-06T18:59:05.711Z,100402.22
2022-09-06T19:01:33.416Z,100405.00
2022-09-06T19:04:01.146Z,100403.06
2022-09-06T19:06:29.465Z,100419.31
2022-09-06T19:09:00.704Z,100417.69
2022-09-06T19:11:27.889Z,100407.47
2022-09-06T19:13:56.238Z,100411.84
2022-09-06T19:16:24.459Z,100409.25
2022-09-06T19:18:51.193Z,100413.97
2022-09-06T19:21:19.692Z,100409.44
2022-09-06T19:23:54.121Z,100415.44
2022-09-06T19:26:22.463Z,100404.72
2022-09-06T19:28:57.317Z,100405.69
2022-09-06T19:31:25.642Z,100405.66
2022-09-06T19:33:53.980Z,100400.16
2022-09-06T19:36:22.258Z,100405.00
2022-09-06T19:39:05.784Z,100397.22
2022-09-06T19:41:38.601Z,100402.56
2022-09-06T19:44:08.540Z,100399.47
2022-09-06T19:46:35.728Z,100400.25
2022-09-06T19:49:02.435Z,100398.78
2022-09-06T19:51:29.165Z,100405.25
2022-09-06T19:54:00.167Z,100399.91
2022-09-06T19:56:32.670Z,100407.03
2022-09-06T19:59:01.774Z,100405.22
2022-09-06T20:01:31.190Z,100405.03
2022-09-06T20:03:59.109Z,100400.97
2022-09-06T20:06:27.035Z,100397.72
2022-09-06T20:08:55.527Z,100397.25
2022-09-06T20:11:24.176Z,100384.44
2022-09-06T20:13:50.967Z,100388.63
2022-09-06T20:16:20.568Z,100387.63
2022-09-06T20:18:48.397Z,100385.84
2022-09-06T20:21:15.118Z,100390.38
2022-09-06T20:23:42.061Z,100387.75
2022-09-06T20:26:16.097Z,100395.03
2022-09-06T20:28:44.133Z,100384.97
2022-09-06T20:31:14.118Z,100387.53
2022-09-06T20:33:40.725Z,100385.22
2022-09-06T20:36:09.226Z,100381.47
2022-09-06T20:38:38.246Z,100374.19
2022-09-06T20:41:13.118Z,100375.59
2022-09-06T20:43:40.628Z,100373.00
2022-09-06T20:46:15.636Z,100368.78
2022-09-06T20:48:44.872Z,100366.63
2022-09-06T20:51:15.639Z,100368.88
2022-09-06T20:53:42.669Z,100365.44
2022-09-06T20:56:14.127Z,100357.72
2022-09-06T20:58:41.367Z,100351.66
2022-09-06T21:01:11.874Z,100352.28
2022-09-06T21:03:40.952Z,100343.88
2022-09-06T21:06:09.650Z,100352.56
2022-09-06T21:08:41.858Z,100344.44
2022-09-06T21:11:09.877Z,100334.06
2022-09-06T21:13:37.362Z,100335.31
2022-09-06T21:16:04.934Z,100346.44
2022-09-06T21:18:32.881Z,100341.03
2022-09-06T21:21:01.613Z,100337.78
2022-09-06T21:23:30.345Z,100334.03
2022-09-06T21:25:59.280Z,100337.41
2022-09-06T21:28:29.025Z,100342.91
2022-09-06T21:31:09.920Z,100338.41
2022-09-06T21:33:38.099Z,100345.38
2022-09-06T21:36:08.098Z,100350.88
2022-09-06T21:38:36.864Z,100349.69
2022-09-06T21:41:04.615Z,100357.72
2022-09-06T21:43:31.787Z,100366.56
2022-09-06T21:46:02.951Z,100366.78
2022-09-06T21:48:29.779Z,100378.28
2022-09-06T21:50:56.472Z,100373.72
2022-09-06T21:53:23.736Z,100374.34
2022-09-06T21:55:50.340Z,100367.84
2022-09-06T21:58:16.912Z,100364.56
2022-09-06T22:00:46.135Z,100350.38
2022-09-06T22:03:12.718Z,100355.03
2022-09-06T22:05:39.422Z,100345.69
2022-09-06T22:08:06.045Z,100346.69
2022-09-06T22:10:32.585Z,100335.13
2022-09-06T22:12:59.136Z,100334.19
2022-09-06T22:15:25.750Z,100331.00
2022-09-06T22:17:52.353Z,100333.63
2022-09-06T22:20:19.317Z,100339.00
2022-09-06T22:22:46.290Z,100330.66
2022-09-06T22:25:13.887Z,100331.34
2022-09-06T22:27:41.400Z,100334.78
2022-09-06T22:30:08.649Z,100328.66
2022-09-06T22:32:35.130Z,100332.91
2022-09-06T22:35:01.810Z,100327.63
2022-09-06T22:37:28.350Z,100333.31
2022-09-06T22:39:54.956Z,100321.72
2022-09-06T22:42:21.514Z,100315.59
